createdAt,value
2022-10-23T00:01:41.485Z,4.10
2022-10-23T00:04:25.144Z,5.13
2022-10-23T00:06:51.646Z,5.10
2022-10-23T00:09:22.078Z,4.32
2022-10-23T00:11:50.273Z,4.53
2022-10-23T00:14:22.510Z,5.00
2022-10-23T00:16:49.017Z,5.13
2022-10-23T00:19:15.994Z,4.20
2022-10-23T00:21:42.627Z,4.43
2022-10-23T00:26:42.077Z,5.27
2022-10-23T00:29:10.348Z,4.45
2022-10-23T00:31:37.390Z,4.78
2022-10-23T00:34:04.187Z,4.32
2022-10-23T00:36:30.764Z,4.72
2022-10-23T00:38:57.149Z,4.40
2022-10-23T00:41:28.454Z,5.65
2022-10-23T00:44:07.874Z,4.30
2022-10-23T00:46:36.175Z,4.82
2022-10-23T00:49:05.074Z,4.43
2022-10-23T00:51:55.725Z,3.93
2022-10-23T00:54:25.804Z,3.45
2022-10-23T00:56:56.393Z,4.47
2022-10-23T00:59:48.226Z,4.40
2022-10-23T01:02:15.004Z,4.25
2022-10-23T01:04:41.799Z,4.33
2022-10-23T01:07:19.619Z,3.90
2022-10-23T01:09:49.721Z,4.35
2022-10-23T01:12:34.479Z,3.92
2022-10-23T01:15:13.015Z,5.00
2022-10-23T01:17:52.811Z,4.03
2022-10-23T01:20:34.815Z,4.47
2022-10-23T01:26:22.489Z,4.18
2022-10-23T01:28:57.825Z,4.25
2022-10-23T01:31:59.534Z,4.97
2022-10-23T01:34:33.765Z,4.82
2022-10-23T01:44:24.044Z,4.63
2022-10-23T01:46:53.725Z,5.63
2022-10-23T01:49:22.895Z,5.10
2022-10-23T01:51:56.486Z,5.38
2022-10-23T01:54:29.367Z,5.25
2022-10-23T01:56:57.807Z,5.28
2022-10-23T01:59:31.139Z,5.37
2022-10-23T02:01:59.100Z,4.93
2022-10-23T02:04:34.226Z,5.13
2022-10-23T02:07:00.724Z,5.93
2022-10-23T02:09:27.505Z,5.22
2022-10-23T02:12:03.381Z,5.03
2022-10-23T02:18:53.140Z,4.93
2022-10-23T02:22:00.809Z,4.85
2022-10-23T02:24:42.187Z,4.55
2022-10-23T02:27:20.888Z,4.40
2022-10-23T02:30:04.181Z,5.35
2022-10-23T02:32:31.102Z,5.20
2022-10-23T02:34:57.866Z,4.45
2022-10-23T02:37:25.561Z,4.55
2022-10-23T02:39:53.812Z,5.07
2022-10-23T02:42:33.579Z,5.10
2022-10-23T02:45:11.949Z,4.80
2022-10-23T02:47:57.993Z,4.47
2022-10-23T02:50:42.274Z,4.93
2022-10-23T02:53:48.146Z,5.50
2022-10-23T02:56:23.064Z,4.88
2022-10-23T02:59:20.380Z,4.38
2022-10-23T03:02:10.755Z,4.38
2022-10-23T03:04:40.084Z,4.45
2022-10-23T03:07:11.659Z,4.70
2022-10-23T03:10:03.400Z,4.35
2022-10-23T03:12:29.869Z,4.70
2022-10-23T03:14:56.467Z,4.55
2022-10-23T03:17:23.328Z,3.90
2022-10-23T03:19:49.764Z,4.63
2022-10-23T03:22:16.243Z,5.13
2022-10-23T03:24:42.830Z,4.28
2022-10-23T03:27:11.360Z,4.82
2022-10-23T03:29:38.034Z,4.05
2022-10-23T03:32:04.839Z,4.43
2022-10-23T03:34:31.438Z,5.15
2022-10-23T03:36:57.874Z,5.40
2022-10-23T03:39:24.375Z,4.38
2022-10-23T03:41:50.827Z,4.30
2022-10-23T03:44:18.126Z,4.30
2022-10-23T03:46:44.681Z,4.72
2022-10-23T03:49:11.342Z,3.58
2022-10-23T03:51:41.519Z,4.45
2022-10-23T03:54:08.537Z,3.80
2022-10-23T03:56:35.028Z,3.87
2022-10-23T03:59:01.463Z,3.53
2022-10-23T04:01:28.103Z,4.13
2022-10-23T04:03:54.682Z,3.67
2022-10-23T04:06:21.194Z,3.70
2022-10-23T04:08:47.746Z,3.83
2022-10-23T04:11:14.190Z,3.22
2022-10-23T04:13:40.613Z,3.65
2022-10-23T04:16:07.311Z,3.15
2022-10-23T04:18:34.543Z,3.70
2022-10-23T04:21:00.932Z,4.10
2022-10-23T04:23:27.373Z,4.00
2022-10-23T04:25:57.629Z,3.65
2022-10-23T04:28:25.012Z,4.05
2022-10-23T04:30:51.930Z,3.90
2022-10-23T04:33:18.757Z,4.17
2022-10-23T04:35:45.542Z,3.42
2022-10-23T04:38:12.002Z,3.97
2022-10-23T04:40:38.543Z,4.10
2022-10-23T04:43:05.307Z,4.05
2022-10-23T04:45:31.844Z,4.43
2022-10-23T04:47:58.321Z,3.90
2022-10-23T04:50:24.800Z,4.10
2022-10-23T04:52:56.373Z,3.13
2022-10-23T04:55:22.977Z,3.22
2022-10-23T04:57:49.428Z,3.30
2022-10-23T05:00:16.218Z,3.38
2022-10-23T05:02:42.919Z,3.88
2022-10-23T05:05:10.518Z,3.50
2022-10-23T05:07:37.763Z,3.40
2022-10-23T05:10:05.606Z,3.23
2022-10-23T05:12:32.174Z,3.38
2022-10-23T05:14:58.975Z,3.42
2022-10-23T05:17:42.362Z,3.00
2022-10-23T05:20:15.463Z,2.90
2022-10-23T05:22:44.308Z,3.07
2022-10-23T05:25:11.814Z,3.40
2022-10-23T05:27:38.340Z,2.97
2022-10-23T05:30:05.413Z,2.80
2022-10-23T05:32:33.421Z,3.20
2022-10-23T05:35:03.315Z,3.13
2022-10-23T05:37:30.769Z,3.38
2022-10-23T05:39:57.157Z,3.78
2022-10-23T05:42:23.569Z,2.85
2022-10-23T05:44:50.074Z,3.72
2022-10-23T05:47:16.473Z,2.87
2022-10-23T05:49:42.938Z,3.00
2022-10-23T05:52:11.771Z,3.80
2022-10-23T05:54:38.332Z,3.20
2022-10-23T05:57:04.931Z,3.05
2022-10-23T05:59:31.474Z,3.50
2022-10-23T06:01:58.051Z,3.05
2022-10-23T06:04:24.762Z,3.05
2022-10-23T06:06:51.297Z,2.85
2022-10-23T06:09:17.748Z,5.18
2022-10-23T06:11:44.463Z,4.60
2022-10-23T06:14:11.293Z,6.72
2022-10-23T06:16:37.823Z,4.53
2022-10-23T06:19:04.619Z,5.43
2022-10-23T06:21:31.013Z,10.70
2022-10-23T06:23:57.760Z,8.87
2022-10-23T06:26:24.307Z,7.15
2022-10-23T06:28:50.776Z,6.82
2022-10-23T06:31:19.532Z,12.93
2022-10-23T06:33:46.302Z,7.60
2022-10-23T06:36:12.933Z,5.83
2022-10-23T06:38:40.713Z,6.45
2022-10-23T06:41:12.960Z,5.47
2022-10-23T06:43:39.447Z,5.53
2022-10-23T06:46:06.334Z,4.38
2022-10-23T06:48:32.722Z,4.37
2022-10-23T06:50:59.681Z,4.28
2022-10-23T06:53:26.290Z,4.82
2022-10-23T06:55:59.825Z,4.13
2022-10-23T06:58:26.789Z,3.83
2022-10-23T07:00:54.131Z,4.30
2022-10-23T07:03:20.903Z,3.78
2022-10-23T07:05:47.496Z,3.75
2022-10-23T07:08:14.597Z,3.30
2022-10-23T07:10:43.994Z,3.75
2022-10-23T07:13:11.815Z,3.53
2022-10-23T07:15:39.220Z,2.90
2022-10-23T07:18:06.617Z,4.22
2022-10-23T07:20:33.472Z,3.38
2022-10-23T07:23:00.330Z,3.17
2022-10-23T07:25:27.130Z,3.03
2022-10-23T07:27:55.763Z,3.22
2022-10-23T07:30:22.463Z,3.92
2022-10-23T07:32:49.123Z,3.55
2022-10-23T07:35:16.774Z,4.15
2022-10-23T07:37:43.717Z,3.43
2022-10-23T07:40:11.667Z,4.80
2022-10-23T07:42:38.896Z,3.45
2022-10-23T07:45:07.408Z,3.67
2022-10-23T07:47:34.160Z,4.22
2022-10-23T07:50:00.586Z,3.50
2022-10-23T07:52:30.816Z,3.45
2022-10-23T07:54:59.999Z,3.38
2022-10-23T07:57:28.333Z,3.17
2022-10-23T07:59:54.870Z,3.35
2022-10-23T08:02:21.424Z,3.10
2022-10-23T08:04:51.364Z,3.28
2022-10-23T08:07:17.903Z,3.50
2022-10-23T08:10:09.132Z,3.95
2022-10-23T08:12:37.781Z,3.40
2022-10-23T08:15:04.907Z,3.10
2022-10-23T08:17:31.489Z,3.13
2022-10-23T08:19:58.067Z,4.03
2022-10-23T08:22:24.573Z,21.90
2022-10-23T08:24:50.970Z,12.98
2022-10-23T08:27:18.396Z,7.77
2022-10-23T08:29:45.600Z,5.43
2022-10-23T08:32:12.003Z,4.47
2022-10-23T08:34:38.496Z,4.43
2022-10-23T08:37:05.049Z,3.65
2022-10-23T08:39:31.554Z,3.20
2022-10-23T08:41:57.996Z,3.15
2022-10-23T08:44:45.840Z,3.20
2022-10-23T08:47:23.966Z,2.50
2022-10-23T08:50:12.716Z,2.60
2022-10-23T08:53:01.003Z,2.80
2022-10-23T08:55:35.342Z,2.75
2022-10-23T08:58:07.643Z,2.47
2022-10-23T09:00:34.549Z,2.85
2022-10-23T09:03:04.509Z,3.40
2022-10-23T09:05:46.390Z,2.20
2022-10-23T09:08:39.174Z,6.65
2022-10-23T09:11:37.214Z,8.95
2022-10-23T09:14:24.368Z,6.30
2022-10-23T09:20:20.408Z,12.60
2022-10-23T09:22:49.102Z,6.28
2022-10-23T09:25:30.721Z,3.95
2022-10-23T09:28:01.554Z,2.88
2022-10-23T09:30:38.013Z,3.20
2022-10-23T09:33:24.870Z,1.87
2022-10-23T09:36:01.923Z,2.13
2022-10-23T09:38:37.632Z,1.50
2022-10-23T09:41:28.843Z,1.70
2022-10-23T09:44:20.120Z,2.00
2022-10-23T09:46:52.192Z,2.13
2022-10-23T09:49:20.131Z,1.75
2022-10-23T09:51:50.789Z,1.80
2022-10-23T09:54:17.972Z,1.60
2022-10-23T09:59:31.020Z,1.60
2022-10-23T10:02:00.616Z,1.35
2022-10-23T10:04:41.442Z,2.22
2022-10-23T10:07:23.671Z,1.73
2022-10-23T10:09:52.159Z,2.15
2022-10-23T10:12:38.107Z,1.80
2022-10-23T10:15:42.837Z,1.90
2022-10-23T10:18:26.475Z,1.83
2022-10-23T10:21:14.983Z,2.05
2022-10-23T10:24:04.090Z,1.20
2022-10-23T10:26:51.047Z,3.50
2022-10-23T10:29:25.924Z,2.63
2022-10-23T10:32:27.332Z,2.13
2022-10-23T10:35:24.705Z,1.80
2022-10-23T10:38:20.630Z,1.40
2022-10-23T10:41:24.347Z,1.40
2022-10-23T10:44:00.394Z,1.23
2022-10-23T10:46:50.499Z,1.23
2022-10-23T10:49:39.866Z,1.60
2022-10-23T10:52:28.488Z,3.20
2022-10-23T10:55:14.704Z,6.83
2022-10-23T10:57:59.861Z,9.45
2022-10-23T11:00:29.803Z,10.48
2022-10-23T11:03:19.315Z,3.20
2022-10-23T11:05:49.150Z,2.50
2022-10-23T11:08:21.512Z,1.73
2022-10-23T11:10:56.815Z,1.55
2022-10-23T11:13:29.265Z,1.92
2022-10-23T11:15:59.819Z,1.30
2022-10-23T11:18:29.675Z,1.48
2022-10-23T11:21:12.761Z,1.27
2022-10-23T11:27:02.835Z,1.20
2022-10-23T11:29:29.271Z,1.50
2022-10-23T11:32:17.311Z,1.90
2022-10-23T11:35:02.339Z,1.60
2022-10-23T11:37:29.147Z,1.50
2022-10-23T11:40:07.816Z,1.13
2022-10-23T11:42:39.980Z,0.82
2022-10-23T11:45:28.558Z,1.48
2022-10-23T11:48:19.125Z,0.80
2022-10-23T11:50:46.104Z,0.95
2022-10-23T11:53:26.820Z,1.30
2022-10-23T11:56:11.552Z,0.80
2022-10-23T11:58:47.825Z,1.25
2022-10-23T12:01:45.507Z,1.10
2022-10-23T12:04:15.271Z,1.13
2022-10-23T12:06:51.781Z,1.08
2022-10-23T12:09:31.635Z,1.30
2022-10-23T12:12:06.854Z,1.08
2022-10-23T12:14:51.526Z,1.10
2022-10-23T12:17:28.772Z,1.30
2022-10-23T12:20:13.346Z,1.08
2022-10-23T12:22:48.776Z,0.95
2022-10-23T12:25:19.947Z,1.10
2022-10-23T12:27:58.537Z,1.53
2022-10-23T12:30:34.867Z,1.30
2022-10-23T12:33:17.948Z,1.38
2022-10-23T12:36:09.263Z,1.10
2022-10-23T12:38:43.932Z,1.80
2022-10-23T12:41:14.942Z,0.83
2022-10-23T12:43:45.561Z,0.93
2022-10-23T12:46:17.664Z,1.17
2022-10-23T12:48:52.482Z,1.08
2022-10-23T12:51:30.978Z,1.10
2022-10-23T12:53:58.338Z,1.30
2022-10-23T12:56:35.283Z,1.20
2022-10-23T12:59:02.643Z,1.17
2022-10-23T13:01:34.379Z,1.13
2022-10-23T13:04:14.238Z,2.38
2022-10-23T13:06:40.956Z,1.63
2022-10-23T13:09:21.893Z,1.10
2022-10-23T13:11:49.247Z,2.03
2022-10-23T13:14:30.915Z,1.65
2022-10-23T13:17:08.927Z,1.00
2022-10-23T13:19:36.197Z,0.80
2022-10-23T13:22:18.637Z,1.10
2022-10-23T13:24:45.200Z,1.13
2022-10-23T13:27:26.798Z,0.90
2022-10-23T13:29:53.294Z,3.13
2022-10-23T13:32:30.024Z,0.83
2022-10-23T13:35:10.303Z,0.95
2022-10-23T13:37:45.725Z,1.00
2022-10-23T13:40:27.349Z,1.23
2022-10-23T13:42:55.954Z,1.02
2022-10-23T13:45:25.358Z,0.90
2022-10-23T13:47:52.614Z,0.80
2022-10-23T13:50:19.724Z,0.90
2022-10-23T13:52:46.283Z,1.23
2022-10-23T13:55:26.422Z,0.98
2022-10-23T13:57:52.942Z,1.60
2022-10-23T14:00:19.461Z,1.35
2022-10-23T14:02:46.247Z,0.82
2022-10-23T14:05:13.174Z,1.08
2022-10-23T14:07:40.216Z,1.05
2022-10-23T14:10:07.155Z,1.10
2022-10-23T14:12:43.162Z,1.15
2022-10-23T14:15:11.072Z,0.93
2022-10-23T14:17:38.327Z,1.05
2022-10-23T14:20:06.548Z,0.82
2022-10-23T14:22:33.189Z,0.90
2022-10-23T14:24:59.880Z,1.00
2022-10-23T14:27:26.393Z,0.73
2022-10-23T14:29:52.878Z,0.85
2022-10-23T14:32:19.449Z,1.23
2022-10-23T14:34:51.179Z,1.30
2022-10-23T14:37:19.433Z,1.10
2022-10-23T14:39:49.906Z,0.88
2022-10-23T14:42:17.239Z,0.80
2022-10-23T14:44:43.984Z,1.13
2022-10-23T14:47:10.573Z,1.00
2022-10-23T14:49:37.023Z,0.73
2022-10-23T14:52:03.628Z,1.13
2022-10-23T14:54:31.937Z,0.82
2022-10-23T14:56:58.469Z,1.10
2022-10-23T14:59:25.048Z,0.97
2022-10-23T15:01:51.591Z,0.73
2022-10-23T15:04:18.257Z,0.68
2022-10-23T15:06:47.126Z,0.52
2022-10-23T15:09:14.190Z,1.17
2022-10-23T15:11:40.860Z,0.90
2022-10-23T15:14:07.556Z,0.70
2022-10-23T15:20:33.244Z,1.02
2022-10-23T15:23:01.322Z,0.98
2022-10-23T15:25:27.815Z,1.10
2022-10-23T15:27:54.318Z,0.90
2022-10-23T15:30:21.033Z,1.10
2022-10-23T15:32:47.546Z,1.13
2022-10-23T15:35:14.161Z,2.08
2022-10-23T15:37:40.913Z,1.37
2022-10-23T15:40:08.245Z,1.33
2022-10-23T15:42:34.614Z,0.98
2022-10-23T15:45:00.989Z,1.17
2022-10-23T15:47:27.480Z,1.20
2022-10-23T15:49:53.966Z,1.23
2022-10-23T15:52:20.394Z,0.77
2022-10-23T15:54:47.771Z,1.83
2022-10-23T15:57:14.510Z,1.30
2022-10-23T15:59:40.961Z,1.42
2022-10-23T16:02:07.595Z,1.17
2022-10-23T16:04:35.347Z,1.40
2022-10-23T16:07:01.783Z,1.13
2022-10-23T16:09:29.122Z,1.00
2022-10-23T16:11:55.566Z,1.30
2022-10-23T16:14:22.015Z,1.30
2022-10-23T16:16:48.517Z,1.40
2022-10-23T16:19:15.215Z,1.48
2022-10-23T16:21:42.256Z,1.10
2022-10-23T16:24:09.236Z,1.45
2022-10-23T16:26:36.447Z,1.83
2022-10-23T16:29:05.802Z,1.38
2022-10-23T16:31:33.443Z,1.30
2022-10-23T16:34:03.045Z,1.70
2022-10-23T16:36:29.925Z,1.40
2022-10-23T16:38:56.705Z,1.10
2022-10-23T16:41:23.311Z,1.00
2022-10-23T16:43:49.912Z,1.40
2022-10-23T16:46:18.768Z,1.15
2022-10-23T16:49:10.086Z,1.30
2022-10-23T16:51:36.683Z,1.60
2022-10-23T16:54:03.503Z,1.17
2022-10-23T16:56:30.194Z,1.27
2022-10-23T17:01:31.614Z,1.17
2022-10-23T17:03:58.852Z,1.20
2022-10-23T17:06:28.898Z,1.30
2022-10-23T17:08:56.004Z,1.42
2022-10-23T17:11:25.540Z,1.10
2022-10-23T17:13:58.599Z,1.27
2022-10-23T17:16:28.912Z,1.70
2022-10-23T17:18:56.191Z,1.17
2022-10-23T17:21:23.724Z,0.90
2022-10-23T17:23:51.063Z,0.88
2022-10-23T17:26:43.036Z,2.85
2022-10-23T17:29:11.577Z,1.27
2022-10-23T17:31:40.850Z,0.80
2022-10-23T17:34:10.944Z,1.10
2022-10-23T17:36:40.836Z,1.17
2022-10-23T17:39:08.268Z,1.25
2022-10-23T17:41:35.073Z,0.97
2022-10-23T17:44:01.560Z,1.40
2022-10-23T17:46:29.273Z,1.05
2022-10-23T17:51:34.268Z,1.10
2022-10-23T17:54:03.496Z,1.67
2022-10-23T17:56:31.588Z,1.35
2022-10-23T17:59:07.464Z,0.88
2022-10-23T18:01:34.811Z,1.13
2022-10-23T18:04:03.751Z,1.05
2022-10-23T18:06:34.739Z,2.10
2022-10-23T18:09:02.472Z,1.13
2022-10-23T18:11:32.361Z,1.02
2022-10-23T18:16:31.163Z,1.38
2022-10-23T18:19:00.172Z,1.40
2022-10-23T18:21:27.430Z,1.10
2022-10-23T18:23:54.056Z,0.77
2022-10-23T18:26:23.110Z,1.27
2022-10-23T18:28:51.757Z,2.30
2022-10-23T18:31:19.913Z,0.73
2022-10-23T18:33:46.922Z,1.42
2022-10-23T18:36:22.719Z,1.48
2022-10-23T18:38:50.400Z,1.30
2022-10-23T18:41:17.877Z,1.15
2022-10-23T18:43:44.933Z,1.17
2022-10-23T18:46:13.191Z,1.27
2022-10-23T18:48:40.089Z,1.05
2022-10-23T18:51:20.165Z,1.48
2022-10-23T18:53:48.006Z,1.27
2022-10-23T18:56:21.726Z,1.27
2022-10-23T18:58:53.287Z,1.67
2022-10-23T19:01:20.936Z,0.80
2022-10-23T19:03:47.946Z,1.30
2022-10-23T19:06:15.524Z,0.93
2022-10-23T19:08:44.329Z,1.40
2022-10-23T19:11:12.633Z,1.00
2022-10-23T19:13:40.455Z,1.28
2022-10-23T19:16:12.761Z,1.20
2022-10-23T19:18:43.276Z,1.00
2022-10-23T19:21:09.874Z,1.10
2022-10-23T19:23:38.192Z,1.35
2022-10-23T19:26:10.448Z,1.27
2022-10-23T19:28:38.317Z,1.27
2022-10-23T19:31:07.528Z,1.10
2022-10-23T19:33:36.007Z,1.33
2022-10-23T19:36:05.321Z,1.23
2022-10-23T19:38:32.871Z,1.63
2022-10-23T19:40:59.320Z,1.60
2022-10-23T19:43:25.851Z,1.58
2022-10-23T19:45:52.272Z,1.20
2022-10-23T19:48:18.735Z,1.10
2022-10-23T19:50:45.174Z,1.40
2022-10-23T19:53:11.738Z,1.27
2022-10-23T19:55:38.201Z,1.27
2022-10-23T19:58:04.569Z,1.33
2022-10-23T20:00:31.135Z,1.20
2022-10-23T20:02:57.526Z,1.40
2022-10-23T20:05:24.150Z,1.58
2022-10-23T20:07:51.340Z,1.25
2022-10-23T20:10:17.831Z,1.43
2022-10-23T20:12:51.488Z,1.33
2022-10-23T20:15:23.479Z,1.67
2022-10-23T20:17:49.905Z,1.38
2022-10-23T20:20:16.594Z,0.98
2022-10-23T20:22:44.109Z,1.07
2022-10-23T20:25:10.774Z,0.75
2022-10-23T20:30:04.363Z,0.80
2022-10-23T20:32:30.849Z,0.80
2022-10-23T20:34:57.478Z,0.50
2022-10-23T20:37:24.145Z,0.68
2022-10-23T20:39:52.679Z,0.55
2022-10-23T20:42:19.367Z,0.50
2022-10-23T20:44:45.929Z,0.85
2022-10-23T20:47:12.431Z,0.40
2022-10-23T20:49:38.970Z,1.05
2022-10-23T20:52:05.381Z,0.45
2022-10-23T20:54:31.884Z,0.50
2022-10-23T20:56:58.951Z,0.30
2022-10-23T20:59:25.542Z,0.30
2022-10-23T21:01:53.932Z,0.30
2022-10-23T21:04:24.173Z,0.20
2022-10-23T21:07:09.450Z,0.20
2022-10-23T21:09:37.760Z,0.20
2022-10-23T21:12:04.649Z,0.30
2022-10-23T21:14:31.263Z,0.13
2022-10-23T21:16:57.716Z,0.20
2022-10-23T21:19:24.086Z,0.25
2022-10-23T21:21:50.608Z,0.30
2022-10-23T21:24:17.522Z,0.20
2022-10-23T21:26:45.300Z,0.10
2022-10-23T21:29:18.365Z,0.20
2022-10-23T21:31:45.520Z,0.20
2022-10-23T21:34:12.114Z,1.10
2022-10-23T21:36:53.787Z,0.10
2022-10-23T21:39:25.218Z,0.13
2022-10-23T21:41:51.748Z,0.28
2022-10-23T21:44:18.361Z,0.20
2022-10-23T21:46:45.686Z,0.10
2022-10-23T21:49:12.170Z,0.20
2022-10-23T21:51:39.084Z,0.40
2022-10-23T21:54:08.462Z,0.28
2022-10-23T21:56:37.247Z,0.10
2022-10-23T22:01:33.968Z,0.20
2022-10-23T22:04:00.472Z,0.20
2022-10-23T22:06:29.449Z,0.30
2022-10-23T22:08:59.724Z,0.20
2022-10-23T22:11:27.392Z,0.90
2022-10-23T22:13:54.738Z,0.30
2022-10-23T22:16:21.237Z,0.10
2022-10-23T22:18:48.643Z,0.30
2022-10-23T22:21:18.415Z,0.20
2022-10-23T22:23:46.080Z,0.20
2022-10-23T22:26:22.094Z,0.20
2022-10-23T22:28:50.584Z,0.30
2022-10-23T22:31:25.546Z,0.20
2022-10-23T22:33:53.402Z,0.30
2022-10-23T22:36:20.364Z,0.50
2022-10-23T22:38:47.520Z,0.80
2022-10-23T22:41:14.800Z,0.32
2022-10-23T22:43:41.635Z,0.30
2022-10-23T22:46:10.789Z,0.60
2022-10-23T22:48:38.255Z,0.60
2022-10-23T22:51:08.854Z,0.40
2022-10-23T22:53:36.330Z,1.60
2022-10-23T22:56:07.340Z,0.30
2022-10-23T22:58:34.482Z,0.40
2022-10-23T23:01:14.751Z,0.20
2022-10-23T23:03:42.481Z,0.30
2022-10-23T23:06:09.281Z,0.40
2022-10-23T23:08:37.024Z,0.30
2022-10-23T23:11:05.421Z,0.32
2022-10-23T23:13:32.018Z,0.47
2022-10-23T23:15:58.567Z,0.30
2022-10-23T23:18:25.699Z,0.40
2022-10-23T23:20:52.279Z,0.65
2022-10-23T23:23:19.399Z,0.40
2022-10-23T23:25:50.055Z,0.50
2022-10-23T23:28:19.603Z,0.40
2022-10-23T23:33:23.813Z,0.50
2022-10-23T23:35:50.278Z,0.47
2022-10-23T23:38:16.736Z,0.60
2022-10-23T23:40:51.569Z,0.40
2022-10-23T23:43:18.728Z,1.60
2022-10-23T23:45:45.397Z,0.57
2022-10-23T23:48:11.958Z,0.45
2022-10-23T23:50:38.546Z,0.93
2022-10-23T23:53:04.930Z,0.60
2022-10-23T23:55:31.639Z,0.88
2022-10-23T23:57:58.135Z,0.85
